Time;durP1;ratioP1;P1;durP2;ratioP2;P2;SDS_P1;SDS_P2;PMS_P1;PMS_P2;Temp;Humidity;BMP_temperature;BMP_pressure;BME280_temperature;BME280_humidity;BME280_pressure;Samples;Min_cycle;Max_cycle;Signal;HPM_P1;HPM_P2
2024/04/15 00:00:15;;;;;;;2.70;2.47;;;;;;;;;;5336522;26;20476;-55
2024/04/15 00:02:43;;;;;;;2.67;2.47;;;;;;;;;;5337443;26;20241;-56
2024/04/15 00:05:08;;;;;;;2.57;2.37;;;;;;;;;;5351852;26;20520;-54
2024/04/15 00:07:35;;;;;;;3.60;2.60;;;;;;;;;;5337775;26;20586;-55
2024/04/15 00:10:01;;;;;;;7.50;2.33;;;;;;;;;;5336802;26;20539;-55
2024/04/15 00:12:26;;;;;;;7.00;2.80;;;;;;;;;;5336627;26;20300;-54
2024/04/15 00:14:52;;;;;;;2.80;2.53;;;;;;;;;;5337490;26;20271;-53
2024/04/15 00:17:17;;;;;;;2.43;2.27;;;;;;;;;;5337347;26;20279;-55
2024/04/15 00:19:42;;;;;;;2.50;2.00;;;;;;;;;;5336935;26;20249;-54
2024/04/15 00:22:09;;;;;;;1.93;1.83;;;;;;;;;;5335382;26;20910;-55
2024/04/15 00:24:35;;;;;;;1.77;1.77;;;;;;;;;;5337391;26;20359;-56
2024/04/15 00:27:00;;;;;;;2.30;2.13;;;;;;;;;;5337120;26;20483;-54
2024/04/15 00:29:27;;;;;;;2.00;1.90;;;;;;;;;;5337171;26;20253;-54
2024/04/15 00:31:52;;;;;;;2.60;2.40;;;;;;;;;;5336409;26;20817;-54
2024/04/15 00:34:19;;;;;;;3.00;2.30;;;;;;;;;;5337185;26;20532;-55
2024/04/15 00:36:44;;;;;;;1.90;1.80;;;;;;;;;;5337388;26;20620;-55
2024/04/15 00:39:10;;;;;;;1.93;1.83;;;;;;;;;;5337100;26;20471;-54
2024/04/15 00:41:36;;;;;;;2.20;2.10;;;;;;;;;;5336162;26;20269;-55
2024/04/15 00:44:01;;;;;;;2.10;1.93;;;;;;;;;;5337022;26;20305;-54
2024/04/15 00:46:27;;;;;;;1.70;1.60;;;;;;;;;;5335313;26;20812;-57
2024/04/15 00:48:53;;;;;;;1.70;1.63;;;;;;;;;;5336966;26;20234;-54
2024/04/15 00:51:20;;;;;;;2.27;2.07;;;;;;;;;;5336406;26;20362;-55
2024/04/15 00:53:47;;;;;;;1.43;1.37;;;;;;;;;;5335507;26;20467;-57
2024/04/15 00:56:14;;;;;;;1.77;1.67;;;;;;;;;;5336805;26;20850;-56
2024/04/15 00:58:40;;;;;;;1.63;1.57;;;;;;;;;;5336573;26;20525;-54
2024/04/15 01:01:05;;;;;;;1.67;1.40;;;;;;;;;;5335782;26;20722;-54
2024/04/15 01:03:31;;;;;;;2.17;1.90;;;;;;;;;;5336225;26;20301;-53
2024/04/15 01:05:56;;;;;;;2.47;2.30;;;;;;;;;;5336716;26;20249;-54
2024/04/15 01:08:21;;;;;;;2.77;2.37;;;;;;;;;;5336458;26;20287;-54
2024/04/15 01:10:47;;;;;;;2.10;1.50;;;;;;;;;;5335463;26;20321;-54
2024/04/15 01:13:13;;;;;;;3.80;2.00;;;;;;;;;;5336449;26;20642;-54
2024/04/15 01:15:38;;;;;;;2.97;1.90;;;;;;;;;;5336396;26;20609;-54
2024/04/15 01:18:04;;;;;;;1.87;1.77;;;;;;;;;;5335202;26;20280;-54
2024/04/15 01:20:29;;;;;;;5.53;1.60;;;;;;;;;;5334783;26;20292;-56
2024/04/15 01:22:55;;;;;;;3.83;2.07;;;;;;;;;;5336015;26;20280;-55
2024/04/15 01:25:21;;;;;;;3.00;1.83;;;;;;;;;;5357107;26;20248;-56
2024/04/15 01:27:46;;;;;;;2.43;1.73;;;;;;;;;;5356847;26;20554;-54
2024/04/15 01:30:13;;;;;;;1.70;1.60;;;;;;;;;;5335417;26;20552;-53
2024/04/15 01:32:38;;;;;;;3.40;1.97;;;;;;;;;;5336137;26;20234;-54
2024/04/15 01:35:05;;;;;;;2.47;1.70;;;;;;;;;;5363249;26;20515;-54
2024/04/15 01:37:30;;;;;;;2.13;2.03;;;;;;;;;;5336409;26;20253;-54
2024/04/15 01:39:55;;;;;;;1.80;1.60;;;;;;;;;;5335722;26;20634;-55
2024/04/15 01:42:21;;;;;;;1.50;1.40;;;;;;;;;;5334432;26;20755;-54
2024/04/15 01:44:46;;;;;;;18.97;2.17;;;;;;;;;;5336752;26;20721;-55
2024/04/15 01:47:11;;;;;;;2.83;2.13;;;;;;;;;;5336430;26;20700;-55
2024/04/15 01:49:37;;;;;;;1.80;1.70;;;;;;;;;;5305186;26;20852;-54
2024/04/15 01:52:03;;;;;;;2.23;2.03;;;;;;;;;;5366055;26;20553;-53
2024/04/15 01:54:28;;;;;;;1.87;1.77;;;;;;;;;;5347795;26;20772;-54
2024/04/15 01:56:55;;;;;;;1.47;1.43;;;;;;;;;;5336061;26;20245;-55
2024/04/15 01:59:20;;;;;;;1.20;1.20;;;;;;;;;;5335208;26;20365;-54
2024/04/15 02:01:46;;;;;;;2.17;1.67;;;;;;;;;;5334715;26;20511;-54
2024/04/15 02:04:11;;;;;;;2.73;1.90;;;;;;;;;;5351075;26;20244;-56
2024/04/15 02:06:36;;;;;;;2.67;1.93;;;;;;;;;;5370851;26;20278;-55
2024/04/15 02:09:02;;;;;;;1.97;1.87;;;;;;;;;;5353874;26;20354;-55
2024/04/15 02:11:27;;;;;;;1.93;1.80;;;;;;;;;;5334599;26;20270;-54
2024/04/15 02:13:52;;;;;;;2.00;1.90;;;;;;;;;;5335107;26;20280;-55
2024/04/15 02:16:18;;;;;;;2.53;2.20;;;;;;;;;;5333165;26;20749;-55
2024/04/15 02:18:43;;;;;;;1.87;1.77;;;;;;;;;;5335299;26;20241;-55
2024/04/15 02:21:11;;;;;;;4.30;2.13;;;;;;;;;;5334239;26;20273;-54
2024/04/15 02:23:36;;;;;;;1.93;1.83;;;;;;;;;;5334732;26;20900;-54
2024/04/15 02:26:03;;;;;;;1.77;1.67;;;;;;;;;;5334469;26;20913;-54
2024/04/15 02:28:29;;;;;;;2.03;1.93;;;;;;;;;;5322807;26;20758;-55
2024/04/15 02:30:54;;;;;;;2.07;1.97;;;;;;;;;;5354715;26;20910;-54
2024/04/15 02:33:21;;;;;;;3.33;2.20;;;;;;;;;;5334776;26;20475;-54
2024/04/15 02:35:46;;;;;;;3.57;2.73;;;;;;;;;;5359765;26;20244;-54
2024/04/15 02:38:11;;;;;;;2.70;1.97;;;;;;;;;;5336484;26;20528;-55
2024/04/15 02:40:37;;;;;;;2.13;2.00;;;;;;;;;;5333820;26;20273;-55
2024/04/15 02:43:03;;;;;;;4.30;2.07;;;;;;;;;;5334009;26;20250;-54
2024/04/15 02:45:29;;;;;;;5.70;4.30;;;;;;;;;;5334793;26;20249;-55
2024/04/15 02:47:56;;;;;;;2.73;2.13;;;;;;;;;;5334244;26;20245;-57
2024/04/15 02:50:23;;;;;;;1.70;1.60;;;;;;;;;;5333719;26;20840;-55
2024/04/15 02:52:48;;;;;;;2.60;2.37;;;;;;;;;;5359425;26;20475;-56
2024/04/15 02:55:15;;;;;;;1.70;1.60;;;;;;;;;;5336018;26;20667;-57
2024/04/15 02:57:40;;;;;;;1.80;1.70;;;;;;;;;;5332354;26;20615;-56
2024/04/15 03:00:06;;;;;;;1.27;1.27;;;;;;;;;;5333285;26;20692;-55
2024/04/15 03:02:31;;;;;;;1.47;1.37;;;;;;;;;;5334201;26;21044;-54
2024/04/15 03:04:57;;;;;;;1.77;1.60;;;;;;;;;;5334504;26;20734;-55
2024/04/15 03:07:22;;;;;;;1.63;1.53;;;;;;;;;;5334376;26;20288;-55
2024/04/15 03:09:51;;;;;;;1.70;1.60;;;;;;;;;;5334007;26;20246;-55
2024/04/15 03:12:16;;;;;;;1.77;1.67;;;;;;;;;;5333752;26;20269;-54
2024/04/15 03:14:42;;;;;;;1.73;1.63;;;;;;;;;;5342657;26;20572;-57
2024/04/15 03:17:07;;;;;;;1.80;1.33;;;;;;;;;;5371450;26;20240;-54
2024/04/15 03:19:33;;;;;;;1.80;1.70;;;;;;;;;;5362574;26;20649;-56
2024/04/15 03:21:58;;;;;;;1.87;1.60;;;;;;;;;;5336314;26;20265;-56
2024/04/15 03:24:23;;;;;;;2.27;1.60;;;;;;;;;;5337369;26;20296;-55
2024/04/15 03:26:49;;;;;;;1.93;1.83;;;;;;;;;;5337515;26;20727;-57
2024/04/15 03:29:14;;;;;;;2.77;1.57;;;;;;;;;;5337275;26;20291;-54
2024/04/15 03:31:39;;;;;;;2.60;1.60;;;;;;;;;;5336363;26;20343;-55
2024/04/15 03:34:05;;;;;;;2.10;2.00;;;;;;;;;;5337372;26;20241;-55
2024/04/15 03:36:30;;;;;;;1.60;1.50;;;;;;;;;;5358525;26;20291;-54
2024/04/15 03:38:56;;;;;;;3.60;1.17;;;;;;;;;;5342853;26;20355;-55
2024/04/15 03:41:21;;;;;;;1.70;1.60;;;;;;;;;;5336529;26;20880;-53
2024/04/15 03:43:47;;;;;;;2.00;1.80;;;;;;;;;;5335400;26;20687;-54
2024/04/15 03:46:12;;;;;;;1.83;1.73;;;;;;;;;;5343470;26;20622;-55
2024/04/15 03:48:39;;;;;;;2.83;1.87;;;;;;;;;;5341695;26;20377;-54
2024/04/15 03:51:04;;;;;;;2.17;2.03;;;;;;;;;;5353445;26;21008;-55
2024/04/15 03:53:31;;;;;;;2.27;2.17;;;;;;;;;;5341733;26;20618;-53
2024/04/15 03:55:58;;;;;;;2.20;2.00;;;;;;;;;;5342296;26;20313;-56
2024/04/15 03:58:23;;;;;;;2.83;2.00;;;;;;;;;;5356562;26;20474;-55
2024/04/15 04:00:50;;;;;;;1.70;1.60;;;;;;;;;;5343009;26;20596;-56
2024/04/15 04:03:15;;;;;;;2.13;1.80;;;;;;;;;;5334932;26;21036;-55
2024/04/15 04:05:41;;;;;;;10.90;1.97;;;;;;;;;;5342528;26;20711;-56
2024/04/15 04:08:07;;;;;;;1.70;1.70;;;;;;;;;;5352730;26;20244;-54
2024/04/15 04:10:34;;;;;;;1.90;1.80;;;;;;;;;;5347884;26;21006;-54
2024/04/15 04:12:59;;;;;;;2.90;2.23;;;;;;;;;;5351179;26;20714;-55
2024/04/15 04:15:25;;;;;;;1.90;1.80;;;;;;;;;;5349154;26;20779;-56
2024/04/15 04:17:50;;;;;;;1.90;1.80;;;;;;;;;;5349069;26;20636;-55
2024/04/15 04:20:15;;;;;;;1.97;1.87;;;;;;;;;;5354688;26;20244;-54
2024/04/15 04:22:41;;;;;;;3.53;2.20;;;;;;;;;;5356144;26;20242;-55
2024/04/15 04:25:08;;;;;;;2.20;2.00;;;;;;;;;;5350779;26;20245;-54
2024/04/15 04:27:36;;;;;;;1.60;1.60;;;;;;;;;;5346837;26;20563;-56
2024/04/15 04:30:02;;;;;;;2.23;2.03;;;;;;;;;;5355225;26;20470;-54
2024/04/15 04:32:27;;;;;;;2.33;2.10;;;;;;;;;;5346868;26;20608;-56
2024/04/15 04:34:53;;;;;;;1.87;1.77;;;;;;;;;;5337093;26;20355;-55
2024/04/15 04:37:18;;;;;;;2.10;1.90;;;;;;;;;;5336858;26;20238;-55
2024/04/15 04:39:43;;;;;;;1.93;1.70;;;;;;;;;;5335385;26;20301;-56
2024/04/15 04:42:11;;;;;;;3.13;1.77;;;;;;;;;;5362583;26;20264;-56
2024/04/15 04:44:36;;;;;;;4.13;2.07;;;;;;;;;;5337182;26;20299;-55
2024/04/15 04:47:01;;;;;;;3.67;2.67;;;;;;;;;;5342213;26;21084;-57
2024/04/15 04:49:29;;;;;;;3.70;2.10;;;;;;;;;;5350078;26;20343;-56
2024/04/15 04:51:55;;;;;;;1.77;1.70;;;;;;;;;;5340161;26;20554;-55
2024/04/15 04:54:20;;;;;;;1.97;1.87;;;;;;;;;;5336660;26;20460;-56
2024/04/15 04:56:45;;;;;;;6.67;2.17;;;;;;;;;;5336451;26;21048;-55
2024/04/15 04:59:12;;;;;;;3.80;2.20;;;;;;;;;;5335766;26;20249;-55
2024/04/15 05:01:40;;;;;;;3.40;2.80;;;;;;;;;;5335473;26;20647;-58
2024/04/15 05:04:08;;;;;;;2.87;2.67;;;;;;;;;;5336517;26;20468;-56
2024/04/15 05:06:34;;;;;;;3.63;2.50;;;;;;;;;;5336484;26;20476;-55
2024/04/15 05:09:00;;;;;;;3.83;3.00;;;;;;;;;;5336139;26;20464;-55
2024/04/15 05:11:27;;;;;;;2.30;2.20;;;;;;;;;;5340445;26;20559;-55
2024/04/15 05:13:52;;;;;;;4.00;3.00;;;;;;;;;;5347224;26;20474;-57
2024/04/15 05:16:18;;;;;;;7.53;3.03;;;;;;;;;;5345297;26;20536;-57
2024/04/15 05:18:43;;;;;;;2.70;2.50;;;;;;;;;;5348092;26;20289;-55
2024/04/15 05:21:13;;;;;;;3.50;3.10;;;;;;;;;;5344273;26;20281;-55
2024/04/15 05:23:39;;;;;;;4.83;3.23;;;;;;;;;;5348102;26;20241;-55
2024/04/15 05:26:05;;;;;;;4.60;2.73;;;;;;;;;;5346151;26;20480;-55
2024/04/15 05:28:31;;;;;;;6.17;2.40;;;;;;;;;;5346868;26;20237;-55
2024/04/15 05:30:56;;;;;;;2.73;2.53;;;;;;;;;;5349879;26;20492;-56
2024/04/15 05:33:22;;;;;;;3.00;2.80;;;;;;;;;;5336136;26;20233;-55
2024/04/15 05:35:49;;;;;;;2.47;2.27;;;;;;;;;;5335794;26;20234;-57
2024/04/15 05:38:15;;;;;;;3.30;3.00;;;;;;;;;;5335724;26;21119;-55
2024/04/15 05:40:40;;;;;;;3.80;2.80;;;;;;;;;;5334625;26;20582;-55
2024/04/15 05:43:09;;;;;;;8.73;3.90;;;;;;;;;;5335624;26;20299;-55
2024/04/15 05:45:35;;;;;;;14.30;2.80;;;;;;;;;;5336294;26;20321;-55
2024/04/15 05:48:00;;;;;;;3.33;2.17;;;;;;;;;;5335399;26;21063;-54
2024/04/15 05:50:26;;;;;;;3.40;2.67;;;;;;;;;;5335259;26;20327;-56
2024/04/15 05:52:51;;;;;;;2.57;2.30;;;;;;;;;;5335329;26;20250;-55
2024/04/15 05:55:18;;;;;;;4.27;2.70;;;;;;;;;;5335306;26;20788;-54
2024/04/15 05:57:43;;;;;;;4.87;2.70;;;;;;;;;;5345241;26;20295;-56
2024/04/15 06:00:09;;;;;;;4.93;2.63;;;;;;;;;;5369605;26;20483;-57
2024/04/15 06:02:40;;;;;;;6.53;3.30;;;;;;;;;;5353938;26;20871;-55
2024/04/15 06:05:07;;;;;;;2.77;2.30;;;;;;;;;;5339105;26;20520;-55
2024/04/15 06:07:33;;;;;;;3.80;3.50;;;;;;;;;;5335369;26;20241;-55
2024/04/15 06:09:59;;;;;;;3.03;2.73;;;;;;;;;;5335324;26;20536;-56
2024/04/15 06:12:28;;;;;;;3.60;2.53;;;;;;;;;;5334264;26;20801;-54
2024/04/15 06:14:54;;;;;;;4.90;3.40;;;;;;;;;;5335923;26;20527;-56
2024/04/15 06:17:19;;;;;;;4.30;3.20;;;;;;;;;;5335288;26;21106;-54
2024/04/15 06:19:45;;;;;;;3.13;2.83;;;;;;;;;;5335115;26;20857;-57
2024/04/15 06:22:11;;;;;;;6.50;2.83;;;;;;;;;;5332730;26;20352;-55
2024/04/15 06:24:36;;;;;;;2.90;2.70;;;;;;;;;;5335524;26;20933;-56
2024/04/15 06:27:02;;;;;;;2.97;2.37;;;;;;;;;;5335476;26;20475;-55
2024/04/15 06:29:28;;;;;;;3.50;2.50;;;;;;;;;;5334590;26;20860;-59
2024/04/15 06:31:54;;;;;;;3.10;2.90;;;;;;;;;;5334518;26;20273;-55
2024/04/15 06:34:21;;;;;;;10.30;3.40;;;;;;;;;;5335158;26;20300;-56
2024/04/15 06:36:47;;;;;;;8.20;3.80;;;;;;;;;;5335573;26;20249;-56
2024/04/15 06:39:12;;;;;;;5.33;3.63;;;;;;;;;;5334873;26;20464;-55
2024/04/15 06:41:39;;;;;;;3.63;3.20;;;;;;;;;;5333861;26;20307;-56
2024/04/15 06:44:05;;;;;;;3.40;2.70;;;;;;;;;;5334770;26;20468;-57
2024/04/15 06:46:31;;;;;;;4.60;3.47;;;;;;;;;;5335389;26;20253;-55
2024/04/15 06:48:56;;;;;;;5.63;3.13;;;;;;;;;;5339106;26;20240;-56
2024/04/15 06:51:22;;;;;;;3.20;2.90;;;;;;;;;;5345969;26;20261;-55
2024/04/15 06:53:47;;;;;;;4.00;2.83;;;;;;;;;;5361039;26;20241;-56
2024/04/15 06:56:14;;;;;;;5.30;3.60;;;;;;;;;;5356427;26;20251;-55
2024/04/15 06:58:39;;;;;;;3.50;3.20;;;;;;;;;;5362739;26;20455;-57
2024/04/15 07:01:05;;;;;;;4.57;3.10;;;;;;;;;;5345729;26;20386;-56
2024/04/15 07:03:31;;;;;;;4.60;3.60;;;;;;;;;;5349587;26;20292;-57
2024/04/15 07:05:56;;;;;;;7.27;4.23;;;;;;;;;;5348644;26;20286;-55
2024/04/15 07:08:24;;;;;;;5.57;3.50;;;;;;;;;;5347327;26;20580;-56
2024/04/15 07:10:50;;;;;;;5.20;3.70;;;;;;;;;;5348994;26;20565;-55
2024/04/15 07:13:15;;;;;;;5.10;2.90;;;;;;;;;;5346403;26;20829;-56
2024/04/15 07:15:41;;;;;;;3.20;3.00;;;;;;;;;;5351557;26;20283;-56
2024/04/15 07:18:07;;;;;;;4.07;3.20;;;;;;;;;;5351823;26;20864;-56
2024/04/15 07:20:32;;;;;;;3.50;3.17;;;;;;;;;;5337176;26;20329;-55
2024/04/15 07:22:57;;;;;;;3.90;3.13;;;;;;;;;;5344537;26;20282;-58
2024/04/15 07:25:24;;;;;;;5.20;3.40;;;;;;;;;;5346841;26;20288;-55
2024/04/15 07:27:49;;;;;;;6.60;3.50;;;;;;;;;;5352654;26;20357;-56
2024/04/15 07:30:15;;;;;;;3.17;2.90;;;;;;;;;;5344961;26;20490;-55
2024/04/15 07:32:41;;;;;;;4.97;3.20;;;;;;;;;;5350679;26;20628;-54
2024/04/15 07:35:06;;;;;;;5.70;3.70;;;;;;;;;;5350319;26;20751;-53
2024/04/15 07:37:32;;;;;;;2.80;2.60;;;;;;;;;;5357540;26;20283;-56
2024/04/15 07:39:58;;;;;;;3.10;2.80;;;;;;;;;;5348529;26;20276;-54
2024/04/15 07:42:24;;;;;;;3.10;2.80;;;;;;;;;;5346012;26;20559;-54
2024/04/15 07:44:50;;;;;;;4.23;3.30;;;;;;;;;;5350606;26;20467;-54
2024/04/15 07:47:16;;;;;;;3.10;2.80;;;;;;;;;;5349019;26;20598;-56
2024/04/15 07:49:42;;;;;;;3.67;3.40;;;;;;;;;;5352946;26;20591;-56
2024/04/15 07:52:07;;;;;;;4.10;3.23;;;;;;;;;;5351074;26;20627;-55
2024/04/15 07:54:33;;;;;;;3.60;3.23;;;;;;;;;;5346290;26;20760;-55
2024/04/15 07:56:59;;;;;;;4.73;3.00;;;;;;;;;;5358844;26;20470;-55
2024/04/15 07:59:24;;;;;;;3.40;3.10;;;;;;;;;;5343702;26;20288;-55
2024/04/15 08:01:49;;;;;;;3.77;2.80;;;;;;;;;;5355090;26;20277;-55
2024/04/15 08:04:18;;;;;;;3.03;2.80;;;;;;;;;;5337017;26;20249;-54
2024/04/15 08:06:43;;;;;;;7.63;2.80;;;;;;;;;;5334453;26;20544;-55
2024/04/15 08:09:10;;;;;;;10.33;3.63;;;;;;;;;;5345612;26;20728;-55
2024/04/15 08:11:36;;;;;;;2.60;2.40;;;;;;;;;;5336203;26;20269;-55
2024/04/15 08:14:02;;;;;;;2.93;2.40;;;;;;;;;;5354755;26;20467;-55
2024/04/15 08:16:28;;;;;;;3.67;2.97;;;;;;;;;;5336106;26;20319;-55
2024/04/15 08:18:54;;;;;;;3.07;2.80;;;;;;;;;;5336907;26;20793;-56
2024/04/15 08:21:20;;;;;;;4.70;3.60;;;;;;;;;;5336494;26;21031;-58
2024/04/15 08:23:45;;;;;;;3.07;2.77;;;;;;;;;;5336038;26;20250;-56
2024/04/15 08:26:12;;;;;;;3.47;3.17;;;;;;;;;;5337034;26;20302;-55
2024/04/15 08:28:37;;;;;;;3.53;2.83;;;;;;;;;;5336908;26;20297;-56
2024/04/15 08:31:03;;;;;;;4.27;3.00;;;;;;;;;;5336084;26;20891;-57
2024/04/15 08:33:28;;;;;;;4.77;2.87;;;;;;;;;;5336919;26;20863;-57
2024/04/15 08:35:54;;;;;;;15.53;3.50;;;;;;;;;;5336926;26;20682;-57
2024/04/15 08:38:19;;;;;;;3.60;3.27;;;;;;;;;;5336736;26;20284;-61
2024/04/15 08:40:50;;;;;;;4.73;3.17;;;;;;;;;;5336096;26;20265;-55
2024/04/15 08:43:20;;;;;;;3.13;2.93;;;;;;;;;;5336462;26;20600;-55
2024/04/15 08:45:46;;;;;;;3.63;3.33;;;;;;;;;;5336840;26;20460;-56
2024/04/15 08:48:11;;;;;;;2.70;2.50;;;;;;;;;;5336620;26;21118;-56
2024/04/15 08:50:37;;;;;;;3.30;3.00;;;;;;;;;;5335385;26;20927;-56
2024/04/15 08:53:02;;;;;;;3.30;3.00;;;;;;;;;;5336545;26;20241;-56
2024/04/15 08:55:28;;;;;;;4.10;3.70;;;;;;;;;;5336572;26;20804;-57
2024/04/15 08:57:54;;;;;;;5.83;3.07;;;;;;;;;;5336634;26;20284;-57
2024/04/15 09:00:21;;;;;;;3.83;3.33;;;;;;;;;;5334966;26;20916;-58
2024/04/15 09:02:49;;;;;;;5.57;3.07;;;;;;;;;;5344579;26;20249;-54
2024/04/15 09:05:17;;;;;;;2.90;2.60;;;;;;;;;;5336769;26;20574;-55
2024/04/15 09:07:42;;;;;;;2.50;1.57;;;;;;;;;;5351344;26;20467;-54
2024/04/15 09:10:10;;;;;;;2.03;1.93;;;;;;;;;;5339990;26;20480;-55
2024/04/15 09:12:38;;;;;;;4.90;2.13;;;;;;;;;;5354124;26;20475;-57
2024/04/15 09:15:04;;;;;;;3.27;2.70;;;;;;;;;;5348278;26;20523;-56
2024/04/15 09:17:30;;;;;;;3.03;2.50;;;;;;;;;;5345370;26;21036;-60
2024/04/15 09:19:57;;;;;;;5.23;2.67;;;;;;;;;;5349220;26;20565;-57
2024/04/15 09:22:30;;;;;;;3.30;2.13;;;;;;;;;;5343688;26;20395;-56
2024/04/15 09:24:56;;;;;;;3.07;2.53;;;;;;;;;;5339764;26;20903;-58
2024/04/15 09:27:24;;;;;;;3.60;2.70;;;;;;;;;;5336125;26;20468;-57
2024/04/15 09:29:52;;;;;;;3.93;2.33;;;;;;;;;;5339634;26;20675;-57
2024/04/15 09:32:18;;;;;;;2.63;2.43;;;;;;;;;;5334591;26;20548;-58
2024/04/15 09:34:44;;;;;;;2.60;2.30;;;;;;;;;;5345249;26;20520;-55
2024/04/15 09:37:12;;;;;;;2.37;2.27;;;;;;;;;;5343184;26;21162;-58
2024/04/15 09:39:38;;;;;;;3.90;2.00;;;;;;;;;;5344469;26;20249;-57
2024/04/15 09:42:05;;;;;;;2.80;2.60;;;;;;;;;;5337075;26;20548;-57
2024/04/15 09:44:31;;;;;;;2.57;2.37;;;;;;;;;;5370902;26;20902;-56
2024/04/15 09:46:57;;;;;;;3.10;2.37;;;;;;;;;;5350173;26;20253;-59
2024/04/15 09:49:26;;;;;;;2.40;2.30;;;;;;;;;;5342291;26;20620;-59
2024/04/15 09:51:59;;;;;;;5.50;2.87;;;;;;;;;;5337346;26;20544;-58
2024/04/15 09:54:30;;;;;;;5.70;2.93;;;;;;;;;;5341806;26;20484;-59
2024/04/15 09:57:00;;;;;;;6.17;2.17;;;;;;;;;;5334819;26;20491;-59
2024/04/15 09:59:29;;;;;;;2.67;2.20;;;;;;;;;;5340914;26;20553;-59
2024/04/15 10:01:56;;;;;;;1.93;1.80;;;;;;;;;;5334591;26;20623;-60
2024/04/15 10:04:23;;;;;;;2.30;2.07;;;;;;;;;;5370103;26;20478;-60
2024/04/15 10:06:53;;;;;;;4.50;2.97;;;;;;;;;;5353825;26;21040;-58
2024/04/15 10:09:19;;;;;;;2.97;2.70;;;;;;;;;;5336015;26;20520;-60
2024/04/15 10:11:48;;;;;;;2.60;2.40;;;;;;;;;;5333709;26;21024;-59
2024/04/15 10:14:19;;;;;;;2.20;2.10;;;;;;;;;;5335088;26;20411;-60
2024/04/15 10:16:50;;;;;;;2.27;2.07;;;;;;;;;;5333797;26;20476;-61
2024/04/15 10:19:30;;;;;;;2.10;1.90;;;;;;;;;;5340679;26;20540;-59
2024/04/15 10:21:55;;;;;;;3.27;2.40;;;;;;;;;;5334069;26;20543;-58
2024/04/15 10:24:25;;;;;;;1.53;1.47;;;;;;;;;;5346545;26;20468;-56
2024/04/15 10:26:51;;;;;;;2.33;1.83;;;;;;;;;;5349508;26;20362;-57
2024/04/15 10:29:21;;;;;;;3.07;2.00;;;;;;;;;;5335337;26;20528;-60
2024/04/15 10:31:50;;;;;;;1.50;1.40;;;;;;;;;;5333481;26;20491;-58
2024/04/15 10:34:15;;;;;;;2.00;1.90;;;;;;;;;;5334707;26;20896;-61
2024/04/15 10:36:43;;;;;;;1.67;1.57;;;;;;;;;;5335298;26;20472;-59
2024/04/15 10:39:14;;;;;;;1.50;1.40;;;;;;;;;;5339637;26;20240;-59
2024/04/15 10:41:40;;;;;;;1.93;1.50;;;;;;;;;;5331507;26;20496;-58
2024/04/15 10:44:06;;;;;;;1.50;1.40;;;;;;;;;;5341272;26;20520;-57
2024/04/15 10:46:32;;;;;;;1.43;1.43;;;;;;;;;;5334385;26;20551;-57
2024/04/15 10:48:58;;;;;;;2.03;1.93;;;;;;;;;;5334507;26;20640;-56
2024/04/15 10:51:24;;;;;;;2.50;1.67;;;;;;;;;;5337995;26;20498;-59
2024/04/15 10:53:49;;;;;;;1.67;1.60;;;;;;;;;;5368856;26;20549;-58
2024/04/15 10:56:15;;;;;;;2.03;1.83;;;;;;;;;;5369648;26;20240;-57
2024/04/15 10:58:42;;;;;;;2.03;1.73;;;;;;;;;;5344112;26;21116;-58
2024/04/15 11:01:12;;;;;;;2.63;2.23;;;;;;;;;;5358645;26;20647;-60
2024/04/15 11:03:41;;;;;;;2.17;2.07;;;;;;;;;;5334108;26;20521;-57
2024/04/15 11:06:06;;;;;;;2.40;2.20;;;;;;;;;;5333524;26;20532;-57
2024/04/15 11:08:32;;;;;;;1.80;1.67;;;;;;;;;;5355878;26;20543;-58
2024/04/15 11:10:57;;;;;;;1.80;1.70;;;;;;;;;;5337135;26;21080;-59
2024/04/15 11:13:23;;;;;;;1.90;1.80;;;;;;;;;;5334859;26;20242;-56
2024/04/15 11:15:51;;;;;;;3.80;2.57;;;;;;;;;;5334298;26;20245;-57
2024/04/15 11:18:20;;;;;;;2.30;2.10;;;;;;;;;;5333588;26;20741;-57
2024/04/15 11:20:45;;;;;;;7.10;2.90;;;;;;;;;;5336805;26;20507;-56
2024/04/15 11:23:11;;;;;;;2.20;2.10;;;;;;;;;;5364193;26;20570;-58
2024/04/15 11:25:39;;;;;;;2.27;1.87;;;;;;;;;;5369187;26;20248;-57
2024/04/15 11:28:06;;;;;;;2.40;2.30;;;;;;;;;;5351682;26;20301;-57
2024/04/15 11:30:31;;;;;;;2.37;2.17;;;;;;;;;;5332776;26;20555;-57
2024/04/15 11:33:01;;;;;;;3.80;2.60;;;;;;;;;;5333390;26;20487;-57
2024/04/15 11:35:26;;;;;;;3.73;2.57;;;;;;;;;;5334075;26;20518;-59
2024/04/15 11:37:55;;;;;;;4.30;2.80;;;;;;;;;;5335637;26;20805;-58
2024/04/15 11:40:20;;;;;;;3.53;2.70;;;;;;;;;;5353699;26;20478;-59
2024/04/15 11:42:48;;;;;;;2.13;1.60;;;;;;;;;;5367307;26;21139;-55
2024/04/15 11:45:16;;;;;;;0.40;0.40;;;;;;;;;;5338911;26;20698;-57
2024/04/15 11:47:41;;;;;;;0.40;0.40;;;;;;;;;;5337177;26;20472;-56
2024/04/15 11:50:09;;;;;;;0.40;0.40;;;;;;;;;;5336744;26;20530;-58
2024/04/15 11:52:35;;;;;;;0.40;0.40;;;;;;;;;;5336122;26;20237;-55
2024/04/15 11:55:01;;;;;;;0.40;0.40;;;;;;;;;;5336932;26;20476;-57
2024/04/15 11:57:29;;;;;;;0.40;0.40;;;;;;;;;;5357060;26;20490;-57
2024/04/15 11:59:59;;;;;;;0.40;0.40;;;;;;;;;;5343920;26;20468;-55
2024/04/15 12:02:25;;;;;;;0.40;0.40;;;;;;;;;;5335714;26;20880;-55
2024/04/15 12:04:52;;;;;;;0.40;0.40;;;;;;;;;;5340112;26;20536;-58
2024/04/15 12:07:18;;;;;;;0.40;0.40;;;;;;;;;;5335181;26;20455;-56
2024/04/15 12:09:44;;;;;;;0.40;0.40;;;;;;;;;;5336296;26;20524;-56
2024/04/15 12:12:13;;;;;;;0.40;0.40;;;;;;;;;;5335593;26;20693;-56
2024/04/15 12:14:39;;;;;;;0.40;0.40;;;;;;;;;;5336586;26;20996;-57
2024/04/15 12:17:06;;;;;;;0.40;0.40;;;;;;;;;;5337342;26;20459;-57
2024/04/15 12:19:31;;;;;;;0.40;0.40;;;;;;;;;;5337030;26;20464;-56
2024/04/15 12:21:56;;;;;;;0.40;0.40;;;;;;;;;;5336309;26;20535;-57
2024/04/15 12:24:23;;;;;;;0.40;0.40;;;;;;;;;;5338550;26;20515;-56
2024/04/15 12:26:48;;;;;;;0.40;0.40;;;;;;;;;;5306719;26;20564;-56
2024/04/15 12:29:15;;;;;;;0.40;0.40;;;;;;;;;;5336447;26;20272;-58
2024/04/15 12:31:41;;;;;;;0.40;0.40;;;;;;;;;;5358725;26;20272;-58
2024/04/15 12:34:06;;;;;;;0.40;0.40;;;;;;;;;;5340386;26;21438;-56
2024/04/15 12:36:31;;;;;;;0.40;0.40;;;;;;;;;;5336927;26;20893;-56
2024/04/15 12:38:57;;;;;;;0.40;0.40;;;;;;;;;;5346654;26;20287;-55
2024/04/15 12:41:23;;;;;;;0.40;0.40;;;;;;;;;;5335761;26;20315;-56
2024/04/15 12:43:49;;;;;;;0.40;0.40;;;;;;;;;;5335916;26;20288;-56
2024/04/15 12:46:14;;;;;;;0.40;0.40;;;;;;;;;;5336011;26;20479;-58
2024/04/15 12:48:40;;;;;;;0.40;0.40;;;;;;;;;;5335714;26;20359;-56
2024/04/15 12:51:05;;;;;;;0.40;0.40;;;;;;;;;;5335016;26;20273;-56
2024/04/15 12:53:32;;;;;;;0.40;0.40;;;;;;;;;;5336455;26;20284;-56
2024/04/15 12:55:58;;;;;;;0.40;0.40;;;;;;;;;;5335643;26;20328;-55
2024/04/15 12:58:23;;;;;;;0.40;0.40;;;;;;;;;;5336051;26;21001;-58
2024/04/15 13:00:48;;;;;;;0.40;0.40;;;;;;;;;;5335561;26;20329;-56
2024/04/15 13:03:14;;;;;;;0.40;0.40;;;;;;;;;;5335795;26;20312;-57
2024/04/15 13:05:39;;;;;;;0.40;0.40;;;;;;;;;;5336320;26;20242;-55
2024/04/15 13:08:05;;;;;;;0.40;0.40;;;;;;;;;;5334688;26;20330;-58
2024/04/15 13:10:30;;;;;;;0.40;0.40;;;;;;;;;;5348852;26;20350;-56
2024/04/15 13:12:55;;;;;;;0.40;0.40;;;;;;;;;;5335119;26;20293;-57
2024/04/15 13:15:21;;;;;;;0.40;0.40;;;;;;;;;;5335253;26;20249;-57
2024/04/15 13:17:48;;;;;;;0.40;0.40;;;;;;;;;;5334595;26;20285;-55
2024/04/15 13:20:14;;;;;;;0.40;0.40;;;;;;;;;;5334840;26;20885;-54
2024/04/15 13:22:41;;;;;;;0.40;0.40;;;;;;;;;;5335707;26;20559;-56
2024/04/15 13:25:07;;;;;;;0.40;0.40;;;;;;;;;;5349970;26;20310;-56
2024/04/15 13:27:33;;;;;;;0.40;0.40;;;;;;;;;;5345018;26;20547;-56
2024/04/15 13:29:58;;;;;;;0.40;0.40;;;;;;;;;;5347903;26;20592;-55
2024/04/15 13:32:24;;;;;;;0.40;0.40;;;;;;;;;;5335023;26;20295;-55
2024/04/15 13:34:50;;;;;;;0.40;0.40;;;;;;;;;;5348262;26;20359;-56
2024/04/15 13:37:15;;;;;;;0.40;0.40;;;;;;;;;;5368427;26;20248;-55
2024/04/15 13:39:41;;;;;;;0.40;0.40;;;;;;;;;;5334846;26;20456;-54
2024/04/15 13:42:09;;;;;;;0.40;0.40;;;;;;;;;;5333962;26;20265;-56
2024/04/15 13:44:35;;;;;;;0.40;0.40;;;;;;;;;;5334293;26;20268;-55
2024/04/15 13:47:03;;;;;;;0.40;0.40;;;;;;;;;;5335781;26;20901;-55
2024/04/15 13:49:28;;;;;;;0.40;0.40;;;;;;;;;;5336160;26;20483;-57
2024/04/15 13:51:55;;;;;;;0.40;0.40;;;;;;;;;;5343242;26;20547;-55
2024/04/15 13:54:21;;;;;;;0.40;0.40;;;;;;;;;;5335603;26;20234;-58
2024/04/15 13:56:46;;;;;;;0.40;0.40;;;;;;;;;;5335546;26;20525;-57
2024/04/15 13:59:12;;;;;;;0.40;0.40;;;;;;;;;;5341672;26;20351;-57
2024/04/15 14:01:38;;;;;;;0.40;0.40;;;;;;;;;;5342400;26;20330;-56
2024/04/15 14:04:03;;;;;;;0.40;0.40;;;;;;;;;;5334680;26;20476;-56
2024/04/15 14:06:28;;;;;;;0.40;0.40;;;;;;;;;;5337217;26;20280;-57
2024/04/15 14:08:54;;;;;;;0.40;0.40;;;;;;;;;;5327356;26;20279;-54
2024/04/15 14:11:19;;;;;;;0.40;0.40;;;;;;;;;;5340622;26;20265;-55
2024/04/15 14:13:45;;;;;;;0.40;0.40;;;;;;;;;;5335181;26;20346;-55
2024/04/15 14:16:10;;;;;;;0.40;0.40;;;;;;;;;;5351454;26;20275;-54
2024/04/15 14:18:37;;;;;;;0.40;0.40;;;;;;;;;;5335045;26;20238;-54
2024/04/15 14:21:04;;;;;;;0.40;0.40;;;;;;;;;;5334440;26;20797;-56
2024/04/15 14:23:29;;;;;;;0.40;0.40;;;;;;;;;;5334984;26;20527;-54
2024/04/15 14:25:58;;;;;;;0.40;0.40;;;;;;;;;;5335546;26;20547;-56
2024/04/15 14:28:24;;;;;;;0.40;0.40;;;;;;;;;;5335061;26;21223;-55
2024/04/15 14:30:49;;;;;;;0.40;0.40;;;;;;;;;;5353224;26;20499;-55
2024/04/15 14:33:16;;;;;;;1.40;1.30;;;;;;;;;;5367397;26;20769;-54
2024/04/15 14:35:41;;;;;;;1.30;1.30;;;;;;;;;;5357645;26;20292;-56